sensor_id;sensor_type;location;lat;lon;timestamp;P1;durP1;ratioP1;P2;durP2;ratioP2
22359;SDS011;71759;52.034;4.706;2023-07-24T08:31:23;13.98;;;5.38;;
22359;SDS011;71759;52.034;4.706;2023-07-24T08:33:49;13.93;;;4.97;;
22359;SDS011;71759;52.034;4.706;2023-07-24T08:36:14;10.05;;;4.72;;
22359;SDS011;71759;52.034;4.706;2023-07-24T08:38:40;11.87;;;4.50;;
22359;SDS011;71759;52.034;4.706;2023-07-24T08:43:34;8.43;;;3.92;;
22359;SDS011;71759;52.034;4.706;2023-07-24T08:46:01;13.35;;;5.22;;
22359;SDS011;71759;52.034;4.706;2023-07-24T08:48:38;11.40;;;4.43;;
22359;SDS011;71759;52.034;4.706;2023-07-24T08:51:05;10.45;;;4.70;;
22359;SDS011;71759;52.034;4.706;2023-07-24T08:53:32;9.95;;;4.70;;
22359;SDS011;71759;52.034;4.706;2023-07-24T08:56:00;10.43;;;4.45;;
22359;SDS011;71759;52.034;4.706;2023-07-24T08:58:32;10.57;;;4.75;;
22359;SDS011;71759;52.034;4.706;2023-07-24T09:00:59;11.45;;;4.28;;
22359;SDS011;71759;52.034;4.706;2023-07-24T09:03:25;12.43;;;4.30;;
22359;SDS011;71759;52.034;4.706;2023-07-24T09:05:51;13.05;;;4.20;;
22359;SDS011;71759;52.034;4.706;2023-07-24T09:08:27;13.17;;;4.37;;
22359;SDS011;71759;52.034;4.706;2023-07-24T09:10:54;10.00;;;4.07;;
22359;SDS011;71759;52.034;4.706;2023-07-24T09:13:19;9.50;;;3.85;;
22359;SDS011;71759;52.034;4.706;2023-07-24T09:15:45;9.00;;;3.70;;
22359;SDS011;71759;52.034;4.706;2023-07-24T09:18:11;11.57;;;4.13;;
22359;SDS011;71759;52.034;4.706;2023-07-24T09:20:38;11.57;;;4.07;;
22359;SDS011;71759;52.034;4.706;2023-07-24T09:23:05;10.55;;;3.92;;
22359;SDS011;71759;52.034;4.706;2023-07-24T09:25:32;10.10;;;3.83;;
22359;SDS011;71759;52.034;4.706;2023-07-24T09:27:58;10.75;;;4.07;;
22359;SDS011;71759;52.034;4.706;2023-07-24T09:30:24;10.93;;;4.17;;
22359;SDS011;71759;52.034;4.706;2023-07-24T09:32:53;10.27;;;3.60;;
22359;SDS011;71759;52.034;4.706;2023-07-24T09:35:20;9.27;;;3.40;;
22359;SDS011;71759;52.034;4.706;2023-07-24T09:38:10;9.80;;;3.67;;
22359;SDS011;71759;52.034;4.706;2023-07-24T09:40:43;11.57;;;3.70;;
22359;SDS011;71759;52.034;4.706;2023-07-24T09:43:30;8.73;;;3.30;;
22359;SDS011;71759;52.034;4.706;2023-07-24T09:45:55;10.50;;;3.92;;
22359;SDS011;71759;52.034;4.706;2023-07-24T09:48:25;12.52;;;4.20;;
22359;SDS011;71759;52.034;4.706;2023-07-24T09:50:53;10.80;;;3.40;;
22359;SDS011;71759;52.034;4.706;2023-07-24T09:56:07;9.55;;;3.25;;
22359;SDS011;71759;52.034;4.706;2023-07-24T09:58:34;7.10;;;3.00;;
22359;SDS011;71759;52.034;4.706;2023-07-24T10:01:07;10.30;;;3.53;;
22359;SDS011;71759;52.034;4.706;2023-07-24T10:03:35;7.32;;;3.10;;
22359;SDS011;71759;52.034;4.706;2023-07-24T10:06:04;7.30;;;2.63;;
22359;SDS011;71759;52.034;4.706;2023-07-24T10:08:30;8.55;;;2.90;;
22359;SDS011;71759;52.034;4.706;2023-07-24T10:10:59;8.32;;;2.80;;
22359;SDS011;71759;52.034;4.706;2023-07-24T10:13:25;8.02;;;2.83;;
22359;SDS011;71759;52.034;4.706;2023-07-24T10:15:52;8.02;;;2.60;;
22359;SDS011;71759;52.034;4.706;2023-07-24T10:18:17;8.13;;;2.80;;
22359;SDS011;71759;52.034;4.706;2023-07-24T10:21:07;6.40;;;2.60;;
22359;SDS011;71759;52.034;4.706;2023-07-24T10:23:35;5.47;;;2.50;;
22359;SDS011;71759;52.034;4.706;2023-07-24T10:26:05;5.32;;;2.30;;
22359;SDS011;71759;52.034;4.706;2023-07-24T10:28:32;7.75;;;2.75;;
22359;SDS011;71759;52.034;4.706;2023-07-24T10:31:03;6.22;;;2.53;;
22359;SDS011;71759;52.034;4.706;2023-07-24T10:33:33;6.68;;;2.30;;
22359;SDS011;71759;52.034;4.706;2023-07-24T10:36:05;7.97;;;2.60;;
22359;SDS011;71759;52.034;4.706;2023-07-24T10:38:35;6.53;;;2.40;;
22359;SDS011;71759;52.034;4.706;2023-07-24T10:41:03;5.28;;;2.05;;
22359;SDS011;71759;52.034;4.706;2023-07-24T10:43:39;4.68;;;2.08;;
22359;SDS011;71759;52.034;4.706;2023-07-24T10:46:09;6.32;;;2.70;;
22359;SDS011;71759;52.034;4.706;2023-07-24T10:48:36;7.38;;;2.95;;
22359;SDS011;71759;52.034;4.706;2023-07-24T10:51:08;6.93;;;2.90;;
22359;SDS011;71759;52.034;4.706;2023-07-24T10:53:36;5.38;;;2.60;;
22359;SDS011;71759;52.034;4.706;2023-07-24T10:56:06;5.05;;;2.28;;
22359;SDS011;71759;52.034;4.706;2023-07-24T10:58:32;4.80;;;2.35;;
22359;SDS011;71759;52.034;4.706;2023-07-24T11:00:58;6.23;;;2.43;;
22359;SDS011;71759;52.034;4.706;2023-07-24T11:03:24;4.63;;;2.30;;
22359;SDS011;71759;52.034;4.706;2023-07-24T11:05:50;5.50;;;2.57;;
22359;SDS011;71759;52.034;4.706;2023-07-24T11:08:18;6.30;;;2.40;;
22359;SDS011;71759;52.034;4.706;2023-07-24T11:13:12;5.03;;;2.50;;
22359;SDS011;71759;52.034;4.706;2023-07-24T11:15:38;6.60;;;2.53;;
22359;SDS011;71759;52.034;4.706;2023-07-24T11:18:04;5.93;;;2.43;;
22359;SDS011;71759;52.034;4.706;2023-07-24T11:20:33;6.10;;;2.60;;
22359;SDS011;71759;52.034;4.706;2023-07-24T11:23:02;6.43;;;2.63;;
22359;SDS011;71759;52.034;4.706;2023-07-24T11:25:28;5.57;;;2.40;;
22359;SDS011;71759;52.034;4.706;2023-07-24T11:27:53;5.35;;;2.50;;
22359;SDS011;71759;52.034;4.706;2023-07-24T11:30:19;5.50;;;2.30;;
22359;SDS011;71759;52.034;4.706;2023-07-24T11:32:46;4.22;;;2.30;;
22359;SDS011;71759;52.034;4.706;2023-07-24T11:35:13;4.97;;;2.60;;
22359;SDS011;71759;52.034;4.706;2023-07-24T11:37:39;6.00;;;2.80;;
22359;SDS011;71759;52.034;4.706;2023-07-24T11:40:04;4.80;;;2.72;;
22359;SDS011;71759;52.034;4.706;2023-07-24T11:42:44;7.35;;;2.72;;
22359;SDS011;71759;52.034;4.706;2023-07-24T11:45:10;7.38;;;3.10;;
22359;SDS011;71759;52.034;4.706;2023-07-24T11:50:08;5.30;;;2.40;;
22359;SDS011;71759;52.034;4.706;2023-07-24T11:52:40;6.15;;;2.67;;
22359;SDS011;71759;52.034;4.706;2023-07-24T11:55:11;6.45;;;2.53;;
22359;SDS011;71759;52.034;4.706;2023-07-24T11:57:38;4.45;;;2.50;;
22359;SDS011;71759;52.034;4.706;2023-07-24T12:00:04;5.17;;;2.30;;
22359;SDS011;71759;52.034;4.706;2023-07-24T12:02:32;4.63;;;2.20;;
22359;SDS011;71759;52.034;4.706;2023-07-24T12:05:00;3.85;;;2.13;;
22359;SDS011;71759;52.034;4.706;2023-07-24T12:07:31;3.55;;;1.95;;
22359;SDS011;71759;52.034;4.706;2023-07-24T12:09:59;4.03;;;2.15;;
22359;SDS011;71759;52.034;4.706;2023-07-24T12:12:36;4.20;;;2.10;;
22359;SDS011;71759;52.034;4.706;2023-07-24T12:15:08;4.15;;;1.90;;
22359;SDS011;71759;52.034;4.706;2023-07-24T12:17:34;2.70;;;1.90;;
22359;SDS011;71759;52.034;4.706;2023-07-24T12:20:00;3.67;;;2.03;;
22359;SDS011;71759;52.034;4.706;2023-07-24T12:22:27;5.25;;;1.90;;
22359;SDS011;71759;52.034;4.706;2023-07-24T12:24:53;3.55;;;1.90;;
22359;SDS011;71759;52.034;4.706;2023-07-24T12:27:18;4.50;;;1.90;;
22359;SDS011;71759;52.034;4.706;2023-07-24T12:29:44;3.57;;;1.87;;
22359;SDS011;71759;52.034;4.706;2023-07-24T12:32:09;5.23;;;1.97;;
22359;SDS011;71759;52.034;4.706;2023-07-24T12:34:35;4.40;;;1.90;;
22359;SDS011;71759;52.034;4.706;2023-07-24T12:37:00;4.23;;;1.80;;
22359;SDS011;71759;52.034;4.706;2023-07-24T12:39:26;3.93;;;1.87;;
22359;SDS011;71759;52.034;4.706;2023-07-24T12:41:51;2.13;;;1.60;;
22359;SDS011;71759;52.034;4.706;2023-07-24T12:44:17;3.23;;;1.57;;
22359;SDS011;71759;52.034;4.706;2023-07-24T12:46:42;2.93;;;1.60;;
22359;SDS011;71759;52.034;4.706;2023-07-24T12:49:08;2.20;;;1.37;;
22359;SDS011;71759;52.034;4.706;2023-07-24T12:51:33;4.90;;;1.40;;
22359;SDS011;71759;52.034;4.706;2023-07-24T12:53:59;3.03;;;1.33;;
22359;SDS011;71759;52.034;4.706;2023-07-24T12:56:24;3.10;;;1.23;;
22359;SDS011;71759;52.034;4.706;2023-07-24T12:58:50;2.67;;;1.30;;
22359;SDS011;71759;52.034;4.706;2023-07-24T13:01:15;2.63;;;1.33;;
22359;SDS011;71759;52.034;4.706;2023-07-24T13:03:41;3.33;;;1.43;;
22359;SDS011;71759;52.034;4.706;2023-07-24T13:06:06;3.53;;;1.40;;
22359;SDS011;71759;52.034;4.706;2023-07-24T13:08:32;3.67;;;1.30;;
22359;SDS011;71759;52.034;4.706;2023-07-24T13:10:58;3.80;;;1.50;;
22359;SDS011;71759;52.034;4.706;2023-07-24T13:13:23;3.77;;;1.30;;
22359;SDS011;71759;52.034;4.706;2023-07-24T13:15:49;5.37;;;1.67;;
22359;SDS011;71759;52.034;4.706;2023-07-24T13:18:16;4.25;;;1.50;;
22359;SDS011;71759;52.034;4.706;2023-07-24T13:20:42;4.07;;;1.42;;
22359;SDS011;71759;52.034;4.706;2023-07-24T13:23:07;8.90;;;2.17;;
22359;SDS011;71759;52.034;4.706;2023-07-24T13:25:33;5.00;;;1.88;;
22359;SDS011;71759;52.034;4.706;2023-07-24T13:27:59;4.72;;;1.75;;
22359;SDS011;71759;52.034;4.706;2023-07-24T13:30:24;5.35;;;1.73;;
22359;SDS011;71759;52.034;4.706;2023-07-24T13:32:50;5.43;;;1.67;;
22359;SDS011;71759;52.034;4.706;2023-07-24T13:35:15;3.90;;;1.40;;
22359;SDS011;71759;52.034;4.706;2023-07-24T13:37:41;4.18;;;1.70;;
22359;SDS011;71759;52.034;4.706;2023-07-24T13:40:07;4.72;;;1.70;;
22359;SDS011;71759;52.034;4.706;2023-07-24T13:42:33;5.88;;;1.60;;
22359;SDS011;71759;52.034;4.706;2023-07-24T13:44:59;5.70;;;1.80;;
22359;SDS011;71759;52.034;4.706;2023-07-24T13:47:24;6.67;;;1.93;;
22359;SDS011;71759;52.034;4.706;2023-07-24T13:49:50;5.90;;;1.80;;
22359;SDS011;71759;52.034;4.706;2023-07-24T13:52:15;5.93;;;1.47;;
22359;SDS011;71759;52.034;4.706;2023-07-24T13:54:41;5.53;;;1.40;;
22359;SDS011;71759;52.034;4.706;2023-07-24T13:57:06;5.77;;;1.47;;
22359;SDS011;71759;52.034;4.706;2023-07-24T13:59:33;5.43;;;1.40;;
22359;SDS011;71759;52.034;4.706;2023-07-24T14:01:59;5.38;;;1.30;;
22359;SDS011;71759;52.034;4.706;2023-07-24T14:04:25;4.60;;;1.37;;
22359;SDS011;71759;52.034;4.706;2023-07-24T14:06:50;5.83;;;1.27;;
22359;SDS011;71759;52.034;4.706;2023-07-24T14:09:16;5.33;;;1.37;;
22359;SDS011;71759;52.034;4.706;2023-07-24T14:11:41;6.33;;;1.30;;
22359;SDS011;71759;52.034;4.706;2023-07-24T14:14:07;4.93;;;1.23;;
22359;SDS011;71759;52.034;4.706;2023-07-24T14:16:33;5.85;;;1.35;;
22359;SDS011;71759;52.034;4.706;2023-07-24T14:18:59;5.63;;;1.37;;
22359;SDS011;71759;52.034;4.706;2023-07-24T14:21:24;5.57;;;1.53;;
22359;SDS011;71759;52.034;4.706;2023-07-24T14:23:50;3.57;;;1.20;;
22359;SDS011;71759;52.034;4.706;2023-07-24T14:26:15;7.27;;;1.50;;
22359;SDS011;71759;52.034;4.706;2023-07-24T14:28:41;5.63;;;1.20;;
22359;SDS011;71759;52.034;4.706;2023-07-24T14:31:06;3.97;;;1.20;;
22359;SDS011;71759;52.034;4.706;2023-07-24T14:33:32;6.17;;;1.30;;
22359;SDS011;71759;52.034;4.706;2023-07-24T14:35:57;6.60;;;1.50;;
22359;SDS011;71759;52.034;4.706;2023-07-24T14:38:23;6.80;;;1.40;;
22359;SDS011;71759;52.034;4.706;2023-07-24T14:40:48;5.30;;;1.53;;
22359;SDS011;71759;52.034;4.706;2023-07-24T14:43:14;5.23;;;1.30;;
22359;SDS011;71759;52.034;4.706;2023-07-24T14:45:39;7.23;;;1.57;;
22359;SDS011;71759;52.034;4.706;2023-07-24T14:48:05;6.33;;;1.40;;
22359;SDS011;71759;52.034;4.706;2023-07-24T14:50:34;6.38;;;1.33;;
22359;SDS011;71759;52.034;4.706;2023-07-24T14:53:00;5.97;;;1.52;;
22359;SDS011;71759;52.034;4.706;2023-07-24T14:55:25;5.03;;;1.37;;
22359;SDS011;71759;52.034;4.706;2023-07-24T14:57:51;5.10;;;1.13;;
22359;SDS011;71759;52.034;4.706;2023-07-24T15:00:16;5.93;;;1.27;;
22359;SDS011;71759;52.034;4.706;2023-07-24T15:02:42;5.57;;;1.20;;
22359;SDS011;71759;52.034;4.706;2023-07-24T15:05:07;5.33;;;1.30;;
22359;SDS011;71759;52.034;4.706;2023-07-24T15:07:33;7.22;;;1.25;;
22359;SDS011;71759;52.034;4.706;2023-07-24T15:09:58;4.57;;;0.95;;
22359;SDS011;71759;52.034;4.706;2023-07-24T15:12:24;4.38;;;0.90;;
22359;SDS011;71759;52.034;4.706;2023-07-24T15:14:50;3.70;;;0.90;;
22359;SDS011;71759;52.034;4.706;2023-07-24T15:17:15;3.13;;;0.70;;
22359;SDS011;71759;52.034;4.706;2023-07-24T15:19:43;1.88;;;0.70;;
22359;SDS011;71759;52.034;4.706;2023-07-24T15:22:08;4.23;;;0.80;;
22359;SDS011;71759;52.034;4.706;2023-07-24T15:24:34;5.43;;;1.00;;
22359;SDS011;71759;52.034;4.706;2023-07-24T15:26:59;3.80;;;0.70;;
22359;SDS011;71759;52.034;4.706;2023-07-24T15:29:27;1.83;;;0.60;;
22359;SDS011;71759;52.034;4.706;2023-07-24T15:31:52;3.90;;;0.80;;
22359;SDS011;71759;52.034;4.706;2023-07-24T15:34:18;4.03;;;0.90;;
22359;SDS011;71759;52.034;4.706;2023-07-24T15:36:43;2.37;;;0.60;;
22359;SDS011;71759;52.034;4.706;2023-07-24T15:39:09;1.67;;;0.60;;
22359;SDS011;71759;52.034;4.706;2023-07-24T15:41:34;3.50;;;0.70;;
22359;SDS011;71759;52.034;4.706;2023-07-24T15:44:00;3.80;;;0.70;;
22359;SDS011;71759;52.034;4.706;2023-07-24T15:46:26;3.67;;;0.70;;
22359;SDS011;71759;52.034;4.706;2023-07-24T15:48:54;3.70;;;0.80;;
22359;SDS011;71759;52.034;4.706;2023-07-24T15:51:20;3.78;;;0.63;;
22359;SDS011;71759;52.034;4.706;2023-07-24T15:53:46;2.80;;;0.77;;
22359;SDS011;71759;52.034;4.706;2023-07-24T15:56:11;4.30;;;0.87;;
22359;SDS011;71759;52.034;4.706;2023-07-24T15:58:37;4.13;;;0.98;;
22359;SDS011;71759;52.034;4.706;2023-07-24T16:01:02;2.47;;;0.93;;
22359;SDS011;71759;52.034;4.706;2023-07-24T16:03:28;3.58;;;0.85;;
22359;SDS011;71759;52.034;4.706;2023-07-24T16:05:54;4.45;;;1.27;;
22359;SDS011;71759;52.034;4.706;2023-07-24T16:08:20;4.45;;;1.20;;
22359;SDS011;71759;52.034;4.706;2023-07-24T16:10:45;5.80;;;1.10;;
22359;SDS011;71759;52.034;4.706;2023-07-24T16:13:11;2.05;;;0.90;;
22359;SDS011;71759;52.034;4.706;2023-07-24T16:15:36;2.78;;;1.00;;
22359;SDS011;71759;52.034;4.706;2023-07-24T16:18:02;4.05;;;1.10;;
22359;SDS011;71759;52.034;4.706;2023-07-24T16:20:27;4.80;;;1.27;;
22359;SDS011;71759;52.034;4.706;2023-07-24T16:22:53;5.50;;;1.17;;
22359;SDS011;71759;52.034;4.706;2023-07-24T16:25:18;5.83;;;1.30;;
22359;SDS011;71759;52.034;4.706;2023-07-24T16:27:44;3.93;;;1.03;;
22359;SDS011;71759;52.034;4.706;2023-07-24T16:30:10;6.57;;;1.50;;
22359;SDS011;71759;52.034;4.706;2023-07-24T16:32:35;6.75;;;1.40;;
22359;SDS011;71759;52.034;4.706;2023-07-24T16:35:01;4.28;;;1.05;;
22359;SDS011;71759;52.034;4.706;2023-07-24T16:37:27;5.68;;;1.40;;
22359;SDS011;71759;52.034;4.706;2023-07-24T16:39:54;5.30;;;1.20;;
22359;SDS011;71759;52.034;4.706;2023-07-24T16:42:20;4.63;;;1.20;;
22359;SDS011;71759;52.034;4.706;2023-07-24T16:44:45;5.85;;;1.10;;
22359;SDS011;71759;52.034;4.706;2023-07-24T16:47:11;6.35;;;1.20;;
22359;SDS011;71759;52.034;4.706;2023-07-24T16:49:37;4.65;;;1.30;;
22359;SDS011;71759;52.034;4.706;2023-07-24T16:52:03;4.43;;;1.00;;
22359;SDS011;71759;52.034;4.706;2023-07-24T16:54:29;4.25;;;0.93;;
22359;SDS011;71759;52.034;4.706;2023-07-24T16:56:55;3.88;;;0.98;;
22359;SDS011;71759;52.034;4.706;2023-07-24T16:59:20;3.42;;;0.93;;
22359;SDS011;71759;52.034;4.706;2023-07-24T17:01:46;5.30;;;1.10;;
22359;SDS011;71759;52.034;4.706;2023-07-24T17:04:12;3.80;;;1.00;;
